Time;durP1;ratioP1;P1;durP2;ratioP2;P2;SDS_P1;SDS_P2;PMS_P1;PMS_P2;Temp;Humidity;BMP_temperature;BMP_pressure;BME280_temperature;BME280_humidity;BME280_pressure;Samples;Min_cycle;Max_cycle;Signal;HPM_P1;HPM_P2
2020/12/14 00:01:02;;;;;;;14.32;6.85;;;5.80;99.40;;;;;;5026549;28;20410;-68
2020/12/14 00:03:48;;;;;;;24.35;8.32;;;5.80;99.40;;;;;;5025116;28;20053;-70
2020/12/14 00:06:33;;;;;;;15.45;6.40;;;5.80;99.20;;;;;;5027484;28;20059;-69
2020/12/14 00:08:59;;;;;;;21.38;8.82;;;5.80;99.10;;;;;;5027850;28;20045;-68
2020/12/14 00:11:34;;;;;;;15.68;6.88;;;5.80;99.40;;;;;;5029666;28;20352;-69
2020/12/14 00:14:00;;;;;;;14.70;7.95;;;5.80;99.20;;;;;;5045295;28;20146;-69
2020/12/14 00:16:25;;;;;;;16.88;8.00;;;5.80;99.10;;;;;;5044319;28;20504;-69
2020/12/14 00:18:51;;;;;;;18.35;7.82;;;5.80;99.20;;;;;;5064022;28;20123;-69
2020/12/14 00:21:17;;;;;;;15.52;7.38;;;5.80;99.00;;;;;;5026557;28;20058;-69
2020/12/14 00:23:47;;;;;;;15.38;8.00;;;5.90;99.10;;;;;;5044719;28;20501;-69
2020/12/14 00:26:13;;;;;;;18.27;7.70;;;5.90;99.00;;;;;;5030125;28;20076;-69
2020/12/14 00:28:39;;;;;;;14.35;7.07;;;5.90;98.80;;;;;;5043650;28;20060;-70
2020/12/14 00:31:05;;;;;;;12.43;7.60;;;5.80;99.00;;;;;;5026272;28;20211;-71
2020/12/14 00:33:30;;;;;;;19.77;9.00;;;5.90;98.90;;;;;;5044450;28;20386;-70
2020/12/14 00:35:56;;;;;;;13.68;7.68;;;5.90;98.90;;;;;;5027583;28;20337;-69
2020/12/14 00:38:41;;;;;;;13.63;7.70;;;5.90;98.80;;;;;;5042514;28;20064;-69
2020/12/14 00:41:15;;;;;;;21.60;7.22;;;5.90;98.50;;;;;;5027996;28;20045;-67
2020/12/14 00:43:42;;;;;;;13.48;7.10;;;6.00;98.20;;;;;;5043559;28;20044;-69
2020/12/14 00:46:11;;;;;;;17.13;7.00;;;6.00;98.40;;;;;;5044145;28;20064;-69
2020/12/14 00:48:37;;;;;;;15.02;5.78;;;6.00;98.00;;;;;;5044807;28;20053;-69
2020/12/14 00:51:03;;;;;;;20.00;7.28;;;6.10;97.70;;;;;;5042862;28;20524;-69
2020/12/14 00:53:29;;;;;;;19.02;7.40;;;6.10;97.50;;;;;;5042893;28;20033;-69
2020/12/14 00:56:17;;;;;;;16.05;7.07;;;6.10;97.40;;;;;;5040193;28;20060;-70
2020/12/14 00:59:03;;;;;;;18.65;7.55;;;6.10;97.50;;;;;;5042654;28;20409;-68
2020/12/14 01:01:53;;;;;;;13.93;6.55;;;6.20;97.20;;;;;;5042830;28;20049;-69
2020/12/14 01:04:22;;;;;;;16.48;8.43;;;6.20;97.20;;;;;;5041348;28;20072;-70
2020/12/14 01:06:52;;;;;;;15.90;7.03;;;6.20;97.10;;;;;;5043826;28;20377;-68
2020/12/14 01:09:38;;;;;;;16.55;7.15;;;6.30;97.10;;;;;;5039192;28;20132;-69
2020/12/14 01:12:03;;;;;;;13.63;5.95;;;6.20;96.90;;;;;;5044178;28;20147;-69
2020/12/14 01:14:29;;;;;;;14.85;7.40;;;6.30;96.80;;;;;;5041713;28;20045;-69
2020/12/14 01:16:54;;;;;;;14.65;6.55;;;6.30;96.90;;;;;;5043971;28;20053;-69
2020/12/14 01:19:20;;;;;;;18.13;6.45;;;6.20;96.90;;;;;;5043170;28;20049;-68
2020/12/14 01:21:46;;;;;;;15.45;7.50;;;6.20;97.10;;;;;;5044088;28;20651;-69
2020/12/14 01:24:11;;;;;;;12.52;6.32;;;6.20;96.90;;;;;;5043887;28;20037;-69
2020/12/14 01:26:37;;;;;;;17.02;7.97;;;6.20;97.00;;;;;;5042516;28;20053;-70
2020/12/14 01:29:02;;;;;;;11.57;6.72;;;6.20;97.00;;;;;;5044100;28;20506;-70
2020/12/14 01:31:28;;;;;;;17.65;7.57;;;6.20;97.10;;;;;;5054881;28;20071;-68
2020/12/14 01:34:14;;;;;;;15.80;7.35;;;6.30;97.00;;;;;;5058701;28;20535;-68
2020/12/14 01:36:39;;;;;;;17.40;6.68;;;6.30;97.10;;;;;;5041021;28;20253;-68
2020/12/14 01:39:05;;;;;;;10.77;7.57;;;6.20;97.40;;;;;;5043164;28;20183;-69
2020/12/14 01:41:30;;;;;;;27.52;8.52;;;6.10;97.90;;;;;;5039944;28;20049;-68
2020/12/14 01:44:16;;;;;;;11.85;7.40;;;6.20;97.90;;;;;;5040816;28;20387;-68
2020/12/14 01:47:02;;;;;;;18.67;8.85;;;6.20;97.90;;;;;;5009544;28;20099;-69
2020/12/14 01:49:48;;;;;;;19.27;8.70;;;6.20;98.00;;;;;;5031333;28;20048;-70
2020/12/14 01:52:34;;;;;;;13.45;6.20;;;6.20;97.80;;;;;;5022908;28;20093;-69
2020/12/14 01:55:20;;;;;;;14.98;7.22;;;6.20;97.70;;;;;;5032285;28;20147;-68
2020/12/14 01:58:06;;;;;;;18.13;7.00;;;6.20;97.80;;;;;;5035680;28;20115;-69
2020/12/14 02:00:32;;;;;;;13.85;6.28;;;6.20;97.50;;;;;;5033212;28;20045;-69
2020/12/14 02:03:18;;;;;;;15.50;7.00;;;6.30;97.30;;;;;;5022898;28;20041;-69
2020/12/14 02:06:03;;;;;;;10.38;5.75;;;6.30;97.30;;;;;;5021918;28;20052;-69
2020/12/14 02:08:49;;;;;;;14.75;5.45;;;6.30;97.30;;;;;;5026270;28;20056;-68
2020/12/14 02:11:15;;;;;;;17.55;6.50;;;6.30;97.00;;;;;;5029186;28;20045;-69
2020/12/14 02:13:41;;;;;;;17.10;6.25;;;6.40;97.10;;;;;;5028687;28;20045;-68
2020/12/14 02:16:26;;;;;;;14.65;6.00;;;6.40;96.70;;;;;;5043724;28;20080;-70
2020/12/14 02:18:52;;;;;;;11.57;4.88;;;6.40;96.60;;;;;;5047695;28;20063;-69
2020/12/14 02:21:18;;;;;;;14.65;5.70;;;6.40;96.60;;;;;;5029149;28;20049;-69
2020/12/14 02:23:44;;;;;;;11.80;4.45;;;6.40;96.40;;;;;;5031553;28;20055;-69
2020/12/14 02:26:09;;;;;;;17.73;5.22;;;6.50;96.60;;;;;;5035810;28;20045;-68
2020/12/14 02:28:36;;;;;;;12.10;5.25;;;6.50;96.50;;;;;;5029997;28;20567;-69
2020/12/14 02:31:02;;;;;;;13.30;5.55;;;6.50;96.60;;;;;;5037072;28;20045;-70
2020/12/14 02:33:47;;;;;;;16.45;5.80;;;6.50;96.60;;;;;;5046393;28;20124;-69
2020/12/14 02:36:13;;;;;;;11.50;4.47;;;6.50;96.60;;;;;;5031120;28;20443;-69
2020/12/14 02:38:38;;;;;;;12.63;5.53;;;6.40;96.50;;;;;;5028877;28;20417;-70
2020/12/14 02:41:04;;;;;;;11.60;4.45;;;6.40;96.60;;;;;;5033990;28;20042;-69
2020/12/14 02:43:29;;;;;;;11.98;5.18;;;6.50;96.90;;;;;;5041696;28;20056;-69
2020/12/14 02:46:15;;;;;;;12.55;5.15;;;6.40;96.90;;;;;;5035174;28;20405;-69
2020/12/14 02:48:41;;;;;;;11.00;5.55;;;6.40;96.90;;;;;;5042281;28;20053;-69
2020/12/14 02:51:26;;;;;;;14.40;5.28;;;6.40;96.90;;;;;;5014818;28;20129;-69
2020/12/14 02:53:52;;;;;;;16.85;5.53;;;6.40;97.20;;;;;;5043509;28;20106;-69
2020/12/14 02:56:41;;;;;;;14.10;5.30;;;6.30;97.40;;;;;;5026400;28;20489;-69
2020/12/14 02:59:07;;;;;;;14.77;6.15;;;6.40;97.40;;;;;;5044643;28;20107;-68
2020/12/14 03:01:32;;;;;;;13.43;5.80;;;6.40;97.20;;;;;;5028460;28;20134;-69
2020/12/14 03:04:19;;;;;;;12.70;6.10;;;6.40;97.00;;;;;;5042492;28;20052;-69
2020/12/14 03:06:46;;;;;;;8.88;4.88;;;6.40;97.10;;;;;;5046247;28;20317;-69
2020/12/14 03:09:12;;;;;;;14.43;5.28;;;6.40;97.10;;;;;;5045224;28;20052;-68
2020/12/14 03:11:38;;;;;;;19.00;6.32;;;6.40;96.90;;;;;;5026390;28;20136;-68
2020/12/14 03:14:05;;;;;;;15.80;4.97;;;6.40;97.00;;;;;;5045868;28;20124;-67
2020/12/14 03:16:51;;;;;;;21.15;6.40;;;6.40;97.30;;;;;;5026754;28;20042;-68
2020/12/14 03:19:17;;;;;;;20.70;6.45;;;6.30;97.70;;;;;;5044704;28;20277;-69
2020/12/14 03:21:43;;;;;;;12.88;6.82;;;6.30;98.10;;;;;;5026877;28;20445;-69
2020/12/14 03:24:09;;;;;;;33.67;7.13;;;6.30;98.30;;;;;;5044996;28;20048;-69
2020/12/14 03:26:35;;;;;;;16.60;7.00;;;6.30;98.40;;;;;;5027235;28;20041;-69
2020/12/14 03:29:21;;;;;;;16.73;7.22;;;6.30;98.60;;;;;;5025738;28;20195;-69
2020/12/14 03:31:46;;;;;;;19.00;7.80;;;6.30;98.60;;;;;;5025524;28;20156;-69
2020/12/14 03:34:32;;;;;;;15.40;6.63;;;6.30;98.60;;;;;;5056974;28;20041;-69
2020/12/14 03:36:57;;;;;;;17.75;6.70;;;6.30;98.40;;;;;;5028434;28;20048;-70
2020/12/14 03:39:23;;;;;;;16.85;7.93;;;6.30;98.30;;;;;;5045619;28;20073;-68
2020/12/14 03:41:51;;;;;;;17.20;7.30;;;6.30;98.40;;;;;;5027639;28;20140;-70
2020/12/14 03:44:17;;;;;;;14.80;6.85;;;6.30;98.50;;;;;;5045684;28;20120;-70
2020/12/14 03:46:43;;;;;;;20.27;7.95;;;6.30;98.50;;;;;;5028294;28;21206;-69
2020/12/14 03:49:28;;;;;;;12.27;7.35;;;6.30;98.60;;;;;;5023563;28;20054;-68
2020/12/14 03:52:14;;;;;;;20.40;6.90;;;6.40;98.60;;;;;;5028373;28;20078;-69
2020/12/14 03:54:40;;;;;;;15.95;8.43;;;6.30;98.70;;;;;;5045499;28;20049;-69
2020/12/14 03:57:05;;;;;;;15.68;7.97;;;6.30;98.70;;;;;;5027121;28;20046;-69
2020/12/14 03:59:31;;;;;;;17.92;8.27;;;6.40;98.80;;;;;;5045444;28;20513;-69
2020/12/14 04:01:56;;;;;;;15.13;7.45;;;6.30;98.80;;;;;;5029589;28;20095;-69
2020/12/14 04:04:23;;;;;;;18.58;8.18;;;6.30;98.70;;;;;;5043916;28;20052;-69
2020/12/14 04:06:48;;;;;;;15.93;7.40;;;6.30;98.50;;;;;;5044146;28;20435;-68
2020/12/14 04:09:34;;;;;;;12.80;7.68;;;6.40;98.50;;;;;;5043735;28;20049;-69
2020/12/14 04:12:19;;;;;;;14.52;5.07;;;6.40;98.50;;;;;;5053422;28;20163;-68
2020/12/14 04:15:05;;;;;;;11.82;6.40;;;6.40;98.10;;;;;;5039474;28;20434;-69
2020/12/14 04:17:30;;;;;;;15.77;7.35;;;6.50;98.00;;;;;;5040551;28;20036;-69
2020/12/14 04:20:16;;;;;;;14.65;7.78;;;6.40;98.00;;;;;;5041836;28;20309;-69
2020/12/14 04:22:42;;;;;;;15.68;6.70;;;6.50;97.80;;;;;;5041332;28;20072;-69
2020/12/14 04:25:27;;;;;;;11.43;6.82;;;6.50;97.80;;;;;;5037693;28;20056;-68
2020/12/14 04:27:58;;;;;;;16.17;7.13;;;6.50;97.70;;;;;;5042361;28;20272;-68
2020/12/14 04:30:43;;;;;;;16.25;6.20;;;6.60;97.70;;;;;;5036057;28;20235;-68
2020/12/14 04:33:30;;;;;;;14.25;6.03;;;6.60;97.60;;;;;;5023562;28;20546;-68
2020/12/14 04:35:55;;;;;;;15.43;5.80;;;6.60;97.40;;;;;;5027944;28;20068;-68
2020/12/14 04:38:41;;;;;;;17.45;6.78;;;6.60;97.30;;;;;;5022644;28;20482;-67
2020/12/14 04:41:06;;;;;;;13.55;5.93;;;6.70;97.30;;;;;;5030053;28;20065;-68
2020/12/14 04:43:32;;;;;;;15.30;6.00;;;6.70;97.30;;;;;;5044607;28;20090;-69
2020/12/14 04:46:02;;;;;;;18.23;6.03;;;6.70;97.30;;;;;;5040636;28;20049;-69
2020/12/14 04:48:50;;;;;;;8.95;5.65;;;6.70;97.20;;;;;;5042843;28;20041;-69
2020/12/14 04:51:15;;;;;;;11.20;5.00;;;6.70;97.10;;;;;;5035424;28;20545;-68
2020/12/14 04:53:44;;;;;;;22.90;6.63;;;6.70;97.30;;;;;;5044281;28;20162;-68
2020/12/14 04:56:25;;;;;;;11.70;5.60;;;6.70;97.80;;;;;;5039820;28;20044;-68
2020/12/14 04:58:51;;;;;;;15.60;6.22;;;6.60;98.20;;;;;;5043852;28;20041;-69
2020/12/14 05:01:16;;;;;;;11.43;7.10;;;6.60;98.40;;;;;;5039733;28;20122;-68
2020/12/14 05:03:42;;;;;;;15.18;6.63;;;6.60;98.50;;;;;;5044247;28;20515;-68
2020/12/14 05:06:08;;;;;;;16.58;7.57;;;6.60;98.90;;;;;;5035675;28;20037;-69
2020/12/14 05:08:33;;;;;;;17.23;7.28;;;6.60;99.00;;;;;;5023898;28;20095;-69
2020/12/14 05:10:59;;;;;;;22.83;10.40;;;6.60;99.20;;;;;;5028803;28;20045;-67
2020/12/14 05:13:26;;;;;;;15.45;9.52;;;6.50;99.30;;;;;;5023911;28;20513;-69
2020/12/14 05:15:52;;;;;;;21.15;9.10;;;6.50;99.50;;;;;;5028925;28;20068;-69
2020/12/14 05:18:38;;;;;;;16.95;8.82;;;6.50;99.40;;;;;;5022984;28;20053;-67
2020/12/14 05:21:23;;;;;;;18.67;9.50;;;6.50;99.90;;;;;;5026723;28;20108;-67
2020/12/14 05:24:00;;;;;;;15.63;10.68;;;6.50;99.90;;;;;;5024976;28;20043;-67
2020/12/14 05:26:30;;;;;;;15.98;9.55;;;6.50;99.80;;;;;;5036993;28;20557;-68
2020/12/14 05:29:21;;;;;;;24.08;12.90;;;6.50;99.90;;;;;;5056611;28;20114;-69
2020/12/14 05:32:11;;;;;;;21.65;11.32;;;6.50;99.90;;;;;;5041724;28;20049;-68
2020/12/14 05:34:38;;;;;;;21.35;11.63;;;6.50;99.90;;;;;;5042610;28;20440;-67
2020/12/14 05:37:24;;;;;;;26.00;13.50;;;6.50;99.90;;;;;;5022688;28;20068;-67
2020/12/14 05:40:11;;;;;;;20.65;11.57;;;6.60;99.90;;;;;;5026625;28;20047;-68
2020/12/14 05:42:41;;;;;;;19.45;11.73;;;6.60;99.90;;;;;;5038809;28;20041;-67
2020/12/14 05:45:11;;;;;;;19.35;12.45;;;6.60;99.90;;;;;;5027718;28;20489;-69
2020/12/14 05:47:36;;;;;;;20.05;12.52;;;6.50;99.90;;;;;;5021968;28;20045;-69
2020/12/14 05:50:08;;;;;;;28.10;13.48;;;6.60;99.90;;;;;;5025323;28;20616;-67
2020/12/14 05:52:40;;;;;;;31.88;12.13;;;6.50;99.90;;;;;;5027021;28;20387;-69
2020/12/14 05:55:27;;;;;;;26.33;15.07;;;6.60;99.90;;;;;;5025055;28;20552;-68
2020/12/14 05:57:56;;;;;;;17.60;10.02;;;6.50;99.90;;;;;;5024162;28;20440;-66
2020/12/14 06:00:44;;;;;;;24.80;14.27;;;6.60;99.90;;;;;;5013049;28;20052;-69
2020/12/14 06:03:11;;;;;;;24.13;14.15;;;6.60;99.90;;;;;;5025069;28;20057;-67
2020/12/14 06:05:37;;;;;;;22.05;14.98;;;6.50;99.90;;;;;;5039771;28;20083;-69
2020/12/14 06:08:27;;;;;;;24.95;14.52;;;6.50;99.90;;;;;;5028611;28;20493;-69
2020/12/14 06:10:58;;;;;;;22.95;14.88;;;6.50;99.90;;;;;;5032220;28;20506;-67
2020/12/14 06:13:57;;;;;;;24.95;16.40;;;6.60;99.90;;;;;;5029218;28;20049;-67
2020/12/14 06:16:27;;;;;;;22.85;15.30;;;6.60;99.90;;;;;;5028671;28;20349;-69
2020/12/14 06:18:54;;;;;;;19.08;13.27;;;6.60;99.90;;;;;;5038690;28;20048;-69
2020/12/14 06:21:41;;;;;;;25.60;15.88;;;6.60;99.90;;;;;;5043516;28;20052;-69
2020/12/14 06:24:27;;;;;;;19.67;14.93;;;6.70;99.90;;;;;;5039914;28;20385;-67
2020/12/14 06:26:53;;;;;;;20.38;16.38;;;6.60;99.90;;;;;;5043055;28;20278;-69
2020/12/14 06:29:30;;;;;;;17.40;15.02;;;6.60;99.90;;;;;;5037419;28;20056;-69
2020/12/14 06:31:56;;;;;;;20.50;16.52;;;6.70;99.90;;;;;;5023411;28;20041;-69
2020/12/14 06:34:38;;;;;;;20.35;15.88;;;6.70;99.90;;;;;;5036526;28;20071;-69
2020/12/14 06:37:04;;;;;;;17.00;11.93;;;6.70;99.90;;;;;;5042891;28;20499;-69
2020/12/14 06:39:32;;;;;;;19.17;15.43;;;6.70;99.90;;;;;;5035698;28;20191;-69
2020/12/14 06:42:09;;;;;;;18.55;16.65;;;6.80;99.90;;;;;;5027451;28;20037;-68
2020/12/14 06:44:55;;;;;;;18.50;15.23;;;6.80;99.90;;;;;;5032618;28;20409;-68
2020/12/14 06:47:20;;;;;;;20.98;16.85;;;6.80;99.90;;;;;;5029844;28;20045;-69
2020/12/14 06:50:26;;;;;;;22.13;18.02;;;6.80;99.90;;;;;;5030222;28;20394;-69
2020/12/14 06:52:51;;;;;;;23.65;17.77;;;6.80;99.90;;;;;;5033667;28;20041;-69
2020/12/14 06:55:41;;;;;;;24.95;18.45;;;6.90;99.90;;;;;;5041205;28;20044;-69
2020/12/14 06:58:09;;;;;;;17.60;15.68;;;6.90;99.90;;;;;;5035782;28;20833;-69
2020/12/14 07:00:34;;;;;;;19.17;16.92;;;6.90;99.90;;;;;;5040331;28;20071;-68
2020/12/14 07:03:00;;;;;;;24.95;16.77;;;6.90;99.90;;;;;;5043494;28;20486;-68
2020/12/14 07:05:58;;;;;;;20.52;18.10;;;6.90;99.90;;;;;;5040877;28;20085;-68
2020/12/14 07:08:31;;;;;;;22.55;18.17;;;6.90;99.90;;;;;;5028644;28;20041;-69
2020/12/14 07:11:16;;;;;;;22.80;17.05;;;7.00;99.90;;;;;;5044923;28;20045;-67
2020/12/14 07:13:44;;;;;;;25.02;20.13;;;7.00;99.90;;;;;;5036547;28;20048;-69
2020/12/14 07:16:11;;;;;;;22.02;18.55;;;7.00;99.90;;;;;;5045133;28;20071;-68
2020/12/14 07:18:39;;;;;;;23.60;18.88;;;7.00;99.90;;;;;;5035134;28;20068;-70
2020/12/14 07:21:16;;;;;;;21.20;18.90;;;7.10;99.90;;;;;;5029675;28;20518;-68
2020/12/14 07:23:46;;;;;;;22.63;18.58;;;7.10;99.90;;;;;;5031288;28;20080;-68
2020/12/14 07:26:15;;;;;;;22.17;19.80;;;7.10;99.90;;;;;;5042023;28;20111;-67
2020/12/14 07:29:01;;;;;;;24.75;21.63;;;7.10;99.90;;;;;;5042148;28;20064;-68
2020/12/14 07:31:47;;;;;;;24.10;20.48;;;7.10;99.90;;;;;;5043078;28;20072;-68
2020/12/14 07:34:13;;;;;;;23.08;20.63;;;7.10;99.90;;;;;;5043013;28;20832;-68
2020/12/14 07:36:38;;;;;;;25.17;21.00;;;7.20;99.90;;;;;;5036488;28;20064;-68
2020/12/14 07:39:06;;;;;;;25.60;21.15;;;7.20;99.90;;;;;;5039037;28;20091;-67
2020/12/14 07:41:31;;;;;;;25.33;19.52;;;7.20;99.90;;;;;;5024686;28;20136;-67
2020/12/14 07:43:59;;;;;;;22.65;20.35;;;7.30;99.90;;;;;;5031433;28;20178;-66
2020/12/14 07:46:44;;;;;;;22.77;20.33;;;7.30;99.90;;;;;;5043588;28;20510;-66
2020/12/14 07:49:30;;;;;;;21.98;19.67;;;7.30;99.90;;;;;;5038915;28;20087;-66
2020/12/14 07:52:01;;;;;;;23.23;20.83;;;7.40;99.90;;;;;;5041836;28;20076;-66
2020/12/14 07:54:59;;;;;;;23.33;21.10;;;7.40;99.90;;;;;;5039911;28;20080;-67
2020/12/14 07:57:46;;;;;;;21.50;19.23;;;7.40;99.90;;;;;;5068475;28;20870;-67
2020/12/14 08:00:19;;;;;;;24.35;22.13;;;7.50;99.90;;;;;;5041967;28;20106;-68
2020/12/14 08:03:06;;;;;;;23.60;21.38;;;7.50;99.90;;;;;;5038494;28;20421;-68
2020/12/14 08:05:32;;;;;;;20.88;18.88;;;7.60;99.90;;;;;;5038518;28;20045;-67
2020/12/14 08:08:20;;;;;;;22.23;20.17;;;7.60;99.90;;;;;;5042548;28;20049;-68
2020/12/14 08:10:46;;;;;;;21.45;18.00;;;7.60;99.90;;;;;;5041000;28;20097;-68
2020/12/14 08:13:13;;;;;;;19.13;17.13;;;7.70;99.90;;;;;;5039055;28;20533;-68
2020/12/14 08:15:40;;;;;;;20.73;18.65;;;7.70;99.90;;;;;;5032309;28;20440;-66
2020/12/14 08:18:11;;;;;;;20.48;17.95;;;7.70;99.90;;;;;;5039519;28;20068;-68
2020/12/14 08:20:42;;;;;;;21.25;19.13;;;7.70;99.90;;;;;;5039854;28;20417;-68
2020/12/14 08:23:22;;;;;;;19.77;17.83;;;7.80;99.90;;;;;;5042742;28;20075;-70
2020/12/14 08:25:50;;;;;;;20.10;18.08;;;7.80;99.90;;;;;;5040634;28;20524;-69
2020/12/14 08:28:26;;;;;;;21.33;19.30;;;7.90;99.90;;;;;;5041945;28;20048;-69
2020/12/14 08:30:51;;;;;;;19.25;17.40;;;7.90;99.90;;;;;;5039081;28;20044;-68
2020/12/14 08:33:55;;;;;;;22.98;18.50;;;8.00;99.90;;;;;;5027031;28;20103;-67
2020/12/14 08:36:40;;;;;;;21.77;18.58;;;7.90;99.90;;;;;;5028282;28;20509;-68
2020/12/14 08:39:12;;;;;;;20.60;18.67;;;8.00;99.90;;;;;;5029778;28;20041;-67
2020/12/14 08:42:03;;;;;;;20.05;18.15;;;8.00;99.90;;;;;;5040643;28;20049;-67
2020/12/14 08:44:29;;;;;;;20.77;18.30;;;8.10;99.90;;;;;;5028306;28;20095;-68
2020/12/14 08:46:55;;;;;;;28.10;21.48;;;8.10;99.90;;;;;;5040133;28;20057;-68
2020/12/14 08:49:40;;;;;;;24.17;21.58;;;8.10;99.90;;;;;;5024406;28;20056;-68
2020/12/14 08:52:07;;;;;;;26.05;21.33;;;8.10;99.90;;;;;;5048637;28;20037;-68
2020/12/14 08:54:56;;;;;;;19.38;17.27;;;8.10;99.90;;;;;;5025396;28;20550;-68
2020/12/14 08:57:42;;;;;;;24.83;21.70;;;8.10;99.90;;;;;;5039487;28;20144;-68
2020/12/14 09:00:27;;;;;;;29.80;21.08;;;8.20;99.90;;;;;;5042616;28;20060;-67
2020/12/14 09:03:01;;;;;;;23.30;20.85;;;8.20;99.90;;;;;;5026319;28;20045;-68
2020/12/14 09:05:46;;;;;;;24.73;21.52;;;8.20;99.90;;;;;;5023321;28;20052;-68
2020/12/14 09:08:16;;;;;;;28.60;23.15;;;8.30;99.90;;;;;;5043651;28;20128;-68
2020/12/14 09:10:55;;;;;;;24.92;22.38;;;8.30;99.90;;;;;;5038774;28;20497;-69
2020/12/14 09:13:21;;;;;;;25.92;23.55;;;8.40;99.90;;;;;;5043745;28;20053;-68
2020/12/14 09:16:06;;;;;;;24.80;20.52;;;8.40;99.90;;;;;;5026679;28;20517;-68
2020/12/14 09:18:52;;;;;;;26.58;22.45;;;8.40;99.90;;;;;;5052141;28;20128;-68
2020/12/14 09:21:18;;;;;;;26.88;22.77;;;8.40;99.90;;;;;;5040810;28;20166;-68
2020/12/14 09:23:45;;;;;;;25.58;22.75;;;8.50;99.90;;;;;;5029708;28;20041;-68
2020/12/14 09:26:10;;;;;;;24.58;21.95;;;8.50;99.90;;;;;;5031302;28;20042;-67
2020/12/14 09:28:56;;;;;;;24.20;21.90;;;8.60;99.90;;;;;;5038557;28;20052;-68
2020/12/14 09:31:22;;;;;;;22.30;19.85;;;8.60;99.90;;;;;;5040552;28;20071;-69
2020/12/14 09:34:07;;;;;;;23.73;21.38;;;8.60;99.90;;;;;;5037350;28;20056;-68
2020/12/14 09:36:33;;;;;;;23.42;21.02;;;8.60;99.90;;;;;;5038777;28;20037;-68
2020/12/14 09:38:58;;;;;;;25.73;23.27;;;8.60;99.90;;;;;;5037060;28;20049;-68
2020/12/14 09:41:30;;;;;;;25.35;22.83;;;8.70;99.90;;;;;;5043146;28;20049;-67
2020/12/14 09:44:16;;;;;;;24.65;22.23;;;8.80;99.90;;;;;;5021959;28;20651;-66
2020/12/14 09:46:42;;;;;;;25.92;23.38;;;8.80;99.90;;;;;;5043339;28;20367;-67
2020/12/14 09:49:08;;;;;;;25.52;22.98;;;8.80;99.90;;;;;;5028524;28;20111;-67
2020/12/14 09:51:53;;;;;;;24.23;21.80;;;8.90;99.90;;;;;;5036362;28;20156;-68
2020/12/14 09:54:19;;;;;;;23.38;21.13;;;8.80;99.90;;;;;;5026657;28;20562;-67
2020/12/14 09:56:45;;;;;;;26.10;21.77;;;8.90;99.90;;;;;;5022057;28;20111;-66
2020/12/14 09:59:31;;;;;;;24.27;22.02;;;8.90;99.90;;;;;;5038319;28;20049;-67
2020/12/14 10:01:56;;;;;;;23.58;21.35;;;8.90;99.90;;;;;;5043169;28;20398;-68
2020/12/14 10:04:22;;;;;;;24.92;22.48;;;8.90;99.90;;;;;;5032320;28;20478;-68
2020/12/14 10:06:49;;;;;;;25.60;23.10;;;8.90;99.90;;;;;;5042935;28;20102;-67
2020/12/14 10:09:16;;;;;;;22.50;20.23;;;8.90;99.90;;;;;;5039999;28;20076;-68
2020/12/14 10:12:01;;;;;;;22.10;19.90;;;9.00;99.90;;;;;;5029958;28;20073;-68
2020/12/14 10:14:27;;;;;;;22.73;20.52;;;9.00;99.90;;;;;;5038012;28;20041;-68
2020/12/14 10:17:12;;;;;;;22.23;20.10;;;9.10;99.90;;;;;;5039068;28;20045;-69
2020/12/14 10:19:38;;;;;;;22.98;20.67;;;9.10;99.90;;;;;;5039852;28;20045;-68
2020/12/14 10:22:03;;;;;;;22.10;20.00;;;9.10;99.90;;;;;;5041627;28;20038;-67
2020/12/14 10:24:29;;;;;;;21.42;19.42;;;9.20;99.90;;;;;;5035652;28;20106;-67
2020/12/14 10:26:54;;;;;;;21.70;19.70;;;9.20;99.90;;;;;;5041045;28;20041;-68
2020/12/14 10:29:22;;;;;;;20.77;18.83;;;9.30;99.90;;;;;;5035666;28;20056;-68
2020/12/14 10:31:48;;;;;;;22.38;20.23;;;9.30;99.90;;;;;;5038343;28;20045;-68
2020/12/14 10:34:14;;;;;;;22.48;20.17;;;9.30;99.90;;;;;;5040876;28;20044;-68
2020/12/14 10:36:45;;;;;;;21.83;19.58;;;9.40;99.90;;;;;;5045227;28;20045;-68
2020/12/14 10:39:30;;;;;;;21.98;19.85;;;9.40;99.90;;;;;;5026912;28;20126;-68
2020/12/14 10:41:56;;;;;;;20.23;18.05;;;9.40;99.90;;;;;;5038533;28;20131;-68
2020/12/14 10:44:41;;;;;;;24.77;19.88;;;9.40;99.90;;;;;;5043997;28;20045;-67
2020/12/14 10:47:07;;;;;;;22.20;19.83;;;9.40;99.90;;;;;;5045144;28;20098;-67
2020/12/14 10:49:53;;;;;;;22.10;19.00;;;9.40;99.90;;;;;;5040057;28;20475;-67
2020/12/14 10:52:18;;;;;;;21.63;19.48;;;9.50;99.90;;;;;;5046896;28;20041;-69
2020/12/14 10:55:04;;;;;;;20.77;18.65;;;9.50;99.90;;;;;;5025924;28;20045;-69
2020/12/14 10:57:51;;;;;;;17.67;16.02;;;9.60;99.90;;;;;;5029986;28;20051;-69
2020/12/14 11:00:36;;;;;;;17.58;16.00;;;9.70;99.90;;;;;;5044919;28;20063;-68
2020/12/14 11:03:02;;;;;;;16.58;14.35;;;9.80;99.90;;;;;;5038043;28;20041;-67
2020/12/14 11:05:29;;;;;;;15.68;14.18;;;9.80;99.90;;;;;;5026092;28;20049;-68
2020/12/14 11:07:54;;;;;;;16.05;14.55;;;9.90;99.60;;;;;;5034949;28;20166;-67
2020/12/14 11:10:21;;;;;;;16.48;14.98;;;9.90;99.60;;;;;;5045736;28;20041;-67
2020/12/14 11:12:46;;;;;;;16.77;15.27;;;9.90;99.60;;;;;;5042796;28;20477;-67
2020/12/14 11:15:12;;;;;;;15.90;14.27;;;9.90;99.60;;;;;;5033031;28;20064;-67
2020/12/14 11:17:38;;;;;;;15.82;14.23;;;10.00;99.60;;;;;;5043440;28;20057;-68
2020/12/14 11:20:05;;;;;;;15.57;13.48;;;10.00;99.60;;;;;;5031112;28;20405;-67
2020/12/14 11:22:31;;;;;;;14.13;12.35;;;10.10;99.50;;;;;;5027518;28;20041;-68
2020/12/14 11:24:57;;;;;;;13.27;11.85;;;10.20;99.10;;;;;;5045182;28;20268;-67
2020/12/14 11:27:42;;;;;;;12.32;10.10;;;10.30;98.90;;;;;;5042564;28;20548;-68
2020/12/14 11:30:08;;;;;;;12.20;10.48;;;10.40;98.60;;;;;;5029881;28;20071;-68
2020/12/14 11:32:34;;;;;;;11.13;9.95;;;10.40;98.60;;;;;;5043560;28;20124;-66
2020/12/14 11:35:19;;;;;;;13.30;10.20;;;10.50;98.50;;;;;;5044506;28;20053;-67
2020/12/14 11:37:45;;;;;;;10.38;9.30;;;10.40;98.90;;;;;;5032491;28;20132;-68
2020/12/14 11:40:12;;;;;;;9.45;8.55;;;10.40;98.40;;;;;;5029128;28;20433;-68
2020/12/14 11:42:58;;;;;;;12.85;9.13;;;10.40;98.40;;;;;;5042979;28;20045;-68
2020/12/14 11:45:23;;;;;;;9.45;8.63;;;10.40;98.50;;;;;;5044402;28;20049;-67
2020/12/14 11:47:49;;;;;;;9.95;9.05;;;10.40;98.50;;;;;;5041728;28;20504;-68
2020/12/14 11:50:14;;;;;;;11.18;9.10;;;10.40;98.50;;;;;;5025211;28;20116;-67
2020/12/14 11:52:45;;;;;;;7.90;7.15;;;10.40;98.40;;;;;;5040985;28;20084;-67
2020/12/14 11:55:30;;;;;;;9.10;7.65;;;10.40;98.20;;;;;;5041751;28;20537;-67
2020/12/14 11:57:56;;;;;;;7.57;6.90;;;10.40;98.30;;;;;;5043808;28;20130;-67
2020/12/14 12:00:21;;;;;;;9.25;7.90;;;10.50;98.10;;;;;;5040507;28;20513;-68
2020/12/14 12:02:47;;;;;;;15.07;8.27;;;10.50;98.10;;;;;;5043422;28;20044;-68
2020/12/14 12:05:12;;;;;;;9.73;7.50;;;10.40;98.10;;;;;;5064662;28;20132;-68
2020/12/14 12:07:39;;;;;;;8.38;7.10;;;10.50;98.10;;;;;;5047523;28;20041;-66
2020/12/14 12:10:25;;;;;;;7.40;6.78;;;10.50;98.10;;;;;;5024235;28;20054;-66
2020/12/14 12:12:51;;;;;;;9.10;6.88;;;10.50;98.00;;;;;;5038663;28;20630;-67
2020/12/14 12:15:16;;;;;;;7.95;6.82;;;10.50;98.00;;;;;;5045240;28;20041;-67
2020/12/14 12:18:03;;;;;;;7.00;6.30;;;10.50;98.00;;;;;;5041944;28;20393;-68
2020/12/14 12:20:28;;;;;;;10.13;6.90;;;10.50;97.90;;;;;;5036711;28;20164;-68
2020/12/14 12:22:58;;;;;;;7.95;6.60;;;10.50;97.90;;;;;;5038079;28;20541;-68
2020/12/14 12:25:25;;;;;;;9.38;6.72;;;10.50;97.90;;;;;;5043908;28;20056;-69
2020/12/14 12:28:10;;;;;;;7.60;6.85;;;10.50;97.90;;;;;;5022983;28;20045;-67
2020/12/14 12:30:36;;;;;;;9.27;7.20;;;10.50;98.00;;;;;;5044441;28;20079;-67
2020/12/14 12:33:02;;;;;;;6.63;6.00;;;10.50;97.70;;;;;;5038215;28;20041;-69
2020/12/14 12:35:28;;;;;;;8.07;6.07;;;10.60;97.60;;;;;;5044730;28;20045;-67
2020/12/14 12:38:13;;;;;;;8.57;6.07;;;10.60;97.50;;;;;;5038192;28;20049;-67
2020/12/14 12:40:59;;;;;;;12.38;6.28;;;10.60;97.60;;;;;;5018868;28;20101;-69
2020/12/14 12:43:25;;;;;;;10.63;6.38;;;10.60;97.50;;;;;;5043563;28;20136;-68
2020/12/14 12:46:10;;;;;;;9.73;5.70;;;10.60;97.50;;;;;;5023400;28;20049;-67
2020/12/14 12:48:36;;;;;;;9.88;5.75;;;10.60;97.30;;;;;;5029570;28;20063;-66
2020/12/14 12:51:03;;;;;;;8.65;5.43;;;10.60;97.30;;;;;;5044560;28;20106;-67
2020/12/14 12:53:29;;;;;;;6.60;5.05;;;10.60;97.30;;;;;;5035890;28;20052;-69
2020/12/14 12:55:55;;;;;;;8.02;5.55;;;10.60;97.10;;;;;;5042824;28;20045;-68
2020/12/14 12:58:41;;;;;;;6.60;5.47;;;10.60;97.10;;;;;;5022293;28;20057;-69
2020/12/14 13:01:06;;;;;;;6.75;4.97;;;10.60;96.90;;;;;;5036743;28;20037;-67
2020/12/14 13:03:32;;;;;;;6.93;5.35;;;10.60;97.10;;;;;;5027816;28;20040;-69
2020/12/14 13:05:58;;;;;;;8.68;4.95;;;10.60;97.00;;;;;;5044115;28;20047;-68
2020/12/14 13:08:24;;;;;;;9.95;5.30;;;10.70;97.20;;;;;;5026386;28;20099;-67
2020/12/14 13:10:50;;;;;;;8.35;4.88;;;10.60;96.80;;;;;;5024257;28;20145;-68